Time;durP1;ratioP1;P1;durP2;ratioP2;P2;SDS_P1;SDS_P2;PMS_P1;PMS_P2;Temp;Humidity;BMP_temperature;BMP_pressure;BME280_temperature;BME280_humidity;BME280_pressure;Samples;Min_cycle;Max_cycle;Signal;HPM_P1;HPM_P2
2022/12/09 00:01:53;;;;;;;35.70;11.23;;;1.90;99.90;;;;;;5055987;28;20025;-76
2022/12/09 00:04:19;;;;;;;31.08;9.65;;;1.90;99.90;;;;;;5055825;28;20434;-76
2022/12/09 00:06:47;;;;;;;31.45;11.68;;;1.90;99.90;;;;;;5055688;28;20028;-76
2022/12/09 00:09:14;;;;;;;31.90;10.50;;;1.90;99.90;;;;;;5056818;28;20036;-75
2022/12/09 00:11:40;;;;;;;32.75;10.45;;;1.90;99.90;;;;;;5057025;28;20029;-76
2022/12/09 00:14:07;;;;;;;32.35;12.05;;;2.00;99.90;;;;;;5056776;28;20075;-76
2022/12/09 00:16:33;;;;;;;32.67;10.90;;;2.00;99.90;;;;;;5056595;28;20017;-76
2022/12/09 00:18:58;;;;;;;31.58;11.30;;;2.00;99.90;;;;;;5055553;28;20503;-76
2022/12/09 00:21:27;;;;;;;29.30;9.68;;;2.00;99.90;;;;;;5056872;28;20444;-76
2022/12/09 00:23:54;;;;;;;32.13;10.68;;;2.00;99.90;;;;;;5056714;28;20029;-76
2022/12/09 00:26:23;;;;;;;31.80;10.27;;;2.00;99.90;;;;;;5054478;28;20523;-76
2022/12/09 00:28:49;;;;;;;34.58;11.00;;;2.00;99.90;;;;;;5054343;28;20403;-76
2022/12/09 00:31:18;;;;;;;37.83;11.65;;;2.00;99.90;;;;;;5056765;28;20029;-76
2022/12/09 00:33:43;;;;;;;35.58;10.48;;;2.10;99.90;;;;;;5056197;28;20372;-76
2022/12/09 00:36:18;;;;;;;36.20;11.35;;;2.00;99.90;;;;;;5055331;28;20017;-76
2022/12/09 00:38:44;;;;;;;34.65;10.75;;;2.00;99.90;;;;;;5056574;28;20032;-76
2022/12/09 00:41:10;;;;;;;24.90;8.55;;;2.00;99.90;;;;;;5055195;28;20025;-76
2022/12/09 00:43:36;;;;;;;22.63;7.50;;;2.00;99.90;;;;;;5056430;28;20043;-76
2022/12/09 00:46:02;;;;;;;23.02;7.88;;;2.00;99.90;;;;;;5056155;28;20111;-76
2022/12/09 00:48:27;;;;;;;22.73;7.22;;;2.00;99.90;;;;;;5056267;28;20103;-76
2022/12/09 00:50:53;;;;;;;27.90;9.32;;;2.00;99.90;;;;;;5056241;28;20025;-76
2022/12/09 00:53:19;;;;;;;23.23;8.10;;;2.10;99.90;;;;;;5055967;28;20025;-76
2022/12/09 00:55:45;;;;;;;25.27;9.35;;;2.10;99.90;;;;;;5055966;28;20071;-77
2022/12/09 00:58:11;;;;;;;25.75;9.15;;;2.10;99.90;;;;;;5054750;28;20092;-77
2022/12/09 01:00:40;;;;;;;25.70;9.32;;;2.10;99.90;;;;;;5054793;28;20025;-77
2022/12/09 01:03:06;;;;;;;21.42;7.40;;;2.10;99.90;;;;;;5054633;28;20029;-76
2022/12/09 01:05:35;;;;;;;18.25;6.97;;;2.10;99.90;;;;;;5056124;28;20021;-77
2022/12/09 01:08:00;;;;;;;27.65;8.38;;;2.10;99.90;;;;;;5055348;28;20100;-76
2022/12/09 01:10:26;;;;;;;22.67;8.00;;;2.10;99.90;;;;;;5055612;28;20460;-77
2022/12/09 01:12:51;;;;;;;24.63;8.60;;;2.10;99.90;;;;;;5055678;28;20033;-77
2022/12/09 01:15:17;;;;;;;25.40;8.15;;;2.10;99.90;;;;;;5054968;28;20021;-77
2022/12/09 01:17:42;;;;;;;25.85;9.07;;;2.10;99.90;;;;;;5055731;28;20035;-77
2022/12/09 01:20:09;;;;;;;26.15;9.68;;;2.10;99.90;;;;;;5054516;28;20025;-76
2022/12/09 01:22:35;;;;;;;26.10;9.02;;;2.70;99.90;;;;;;5055512;28;20057;-76
2022/12/09 01:25:02;;;;;;;24.73;8.48;;;2.10;99.90;;;;;;5055238;28;20033;-76
2022/12/09 01:27:31;;;;;;;28.13;9.70;;;2.10;99.90;;;;;;5055518;28;20047;-77
2022/12/09 01:29:59;;;;;;;;;;;2.10;99.90;;;;;;5054654;28;20392;-77
2022/12/09 01:32:25;;;;;;;31.70;7.78;;;2.10;99.90;;;;;;5054322;28;20380;-77
2022/12/09 01:34:50;;;;;;;25.67;8.73;;;2.20;99.90;;;;;;5054131;28;20056;-78
2022/12/09 01:37:16;;;;;;;23.95;8.13;;;2.10;99.90;;;;;;5055256;28;20028;-77
2022/12/09 01:39:41;;;;;;;25.83;7.97;;;2.10;99.90;;;;;;5055120;28;20083;-76
2022/12/09 01:42:18;;;;;;;21.60;8.02;;;3.10;99.90;;;;;;5055600;28;20025;-77
2022/12/09 01:45:21;;;;;;;23.88;8.65;;;2.10;99.90;;;;;;5054984;28;20029;-77
2022/12/09 01:48:00;;;;;;;24.63;8.70;;;2.10;99.90;;;;;;5055054;28;20056;-77
2022/12/09 01:50:28;;;;;;;26.60;7.95;;;2.10;99.90;;;;;;5053535;28;20095;-77
2022/12/09 01:52:54;;;;;;;25.65;8.15;;;2.10;99.90;;;;;;5054759;28;20104;-78
2022/12/09 01:55:20;;;;;;;25.75;8.65;;;2.10;99.90;;;;;;5055530;28;20036;-77
2022/12/09 01:57:46;;;;;;;16.67;6.30;;;2.10;99.90;;;;;;5055019;28;20029;-77
2022/12/09 02:00:12;;;;;;;18.15;6.38;;;2.20;99.90;;;;;;5052804;28;20021;-77
2022/12/09 02:02:40;;;;;;;19.20;6.75;;;2.20;99.90;;;;;;5054679;28;20021;-78
2022/12/09 02:05:07;;;;;;;21.00;5.97;;;;;;;;;;5053547;28;20120;-78
2022/12/09 02:07:33;;;;;;;20.23;7.05;;;;;;;;;;5053433;28;20187;-78
2022/12/09 02:09:59;;;;;;;22.25;7.70;;;2.10;99.90;;;;;;5054735;28;20060;-78
2022/12/09 02:12:35;;;;;;;22.20;7.32;;;2.10;99.90;;;;;;5053308;28;20047;-78
2022/12/09 02:15:02;;;;;;;22.05;7.57;;;2.10;99.90;;;;;;5054618;28;20075;-78
2022/12/09 02:17:40;;;;;;;21.55;7.63;;;2.20;99.90;;;;;;5054719;28;20021;-78
2022/12/09 02:20:35;;;;;;;20.75;7.60;;;2.10;99.90;;;;;;5053593;28;20029;-78
2022/12/09 02:23:12;;;;;;;17.73;6.55;;;2.20;99.90;;;;;;5054734;28;20123;-78
2022/12/09 02:25:54;;;;;;;17.35;5.95;;;2.20;99.90;;;;;;5052804;28;20029;-78
2022/12/09 02:28:56;;;;;;;20.42;6.60;;;2.20;99.90;;;;;;5053562;28;20029;-78
2022/12/09 02:31:34;;;;;;;17.83;4.97;;;2.20;99.90;;;;;;5053916;28;20420;-78
2022/12/09 02:34:20;;;;;;;20.38;6.93;;;2.20;99.90;;;;;;5054441;28;20033;-78
2022/12/09 02:37:07;;;;;;;16.05;6.18;;;2.10;99.90;;;;;;5054066;28;20147;-78
2022/12/09 02:39:46;;;;;;;17.98;6.22;;;2.20;99.90;;;;;;5053033;28;20575;-78
2022/12/09 02:42:17;;;;;;;17.27;6.70;;;2.20;99.90;;;;;;5053329;28;20063;-78
2022/12/09 02:44:46;;;;;;;16.85;6.15;;;2.10;99.90;;;;;;5054536;28;20412;-78
2022/12/09 02:47:14;;;;;;;20.08;7.35;;;2.20;99.90;;;;;;5053755;28;20021;-77
2022/12/09 02:49:41;;;;;;;16.27;6.05;;;2.10;99.90;;;;;;5052380;28;20123;-77
2022/12/09 02:52:09;;;;;;;19.08;6.03;;;2.10;99.90;;;;;;5052633;28;20025;-77
2022/12/09 02:54:37;;;;;;;15.43;5.95;;;2.10;99.90;;;;;;5053671;28;20079;-77
2022/12/09 02:57:14;;;;;;;9.32;3.88;;;2.10;99.90;;;;;;5052594;28;20017;-77
2022/12/09 02:59:40;;;;;;;16.67;6.32;;;2.10;99.90;;;;;;5054024;28;20017;-77
2022/12/09 03:02:24;;;;;;;18.92;6.03;;;2.10;99.90;;;;;;5054044;28;20066;-76
2022/12/09 03:05:12;;;;;;;13.05;4.68;;;2.10;99.90;;;;;;5052689;28;20078;-77
2022/12/09 03:07:51;;;;;;;13.82;5.28;;;2.10;99.90;;;;;;5053862;28;20025;-77
2022/12/09 03:10:26;;;;;;;13.30;4.47;;;2.00;99.90;;;;;;5052624;28;20056;-77
2022/12/09 03:13:00;;;;;;;17.02;5.55;;;1.90;99.90;;;;;;5053999;28;20503;-77
2022/12/09 03:15:28;;;;;;;14.70;5.20;;;1.90;99.90;;;;;;5053846;28;20025;-77
2022/12/09 03:17:57;;;;;;;15.57;5.43;;;1.90;99.90;;;;;;5053947;28;20409;-77
2022/12/09 03:20:27;;;;;;;14.77;5.53;;;1.90;99.90;;;;;;5053902;28;20022;-77
2022/12/09 03:22:58;;;;;;;11.32;4.70;;;1.80;99.90;;;;;;5053621;28;20104;-76
2022/12/09 03:25:30;;;;;;;16.00;5.72;;;1.70;99.90;;;;;;5052513;28;20520;-76
2022/12/09 03:28:02;;;;;;;16.52;5.20;;;1.70;99.90;;;;;;5052481;28;20151;-76
2022/12/09 03:30:32;;;;;;;20.65;6.28;;;1.60;99.90;;;;;;5054142;28;20021;-76
2022/12/09 03:32:57;;;;;;;16.25;5.25;;;1.60;99.90;;;;;;5052392;28;20032;-77
2022/12/09 03:35:31;;;;;;;14.25;4.95;;;1.40;99.90;;;;;;5052276;28;20021;-77
2022/12/09 03:38:00;;;;;;;16.38;6.05;;;1.40;99.90;;;;;;5054190;28;20029;-76
2022/12/09 03:40:28;;;;;;;17.58;5.55;;;1.30;99.90;;;;;;5057351;28;20015;-76
2022/12/09 03:43:11;;;;;;;16.52;4.75;;;1.30;99.90;;;;;;5058096;28;20021;-76
2022/12/09 03:45:37;;;;;;;16.63;5.30;;;1.20;99.90;;;;;;5056056;28;20024;-76
2022/12/09 03:48:03;;;;;;;16.20;6.03;;;1.20;99.90;;;;;;5056223;28;20159;-76
2022/12/09 03:50:38;;;;;;;19.73;4.90;;;1.20;99.90;;;;;;5057101;28;20021;-76
2022/12/09 03:53:11;;;;;;;17.95;5.82;;;1.30;99.90;;;;;;5056616;28;20392;-77
2022/12/09 03:55:56;;;;;;;15.32;5.38;;;1.30;99.90;;;;;;5056460;28;20028;-77
2022/12/09 03:58:23;;;;;;;17.38;6.18;;;1.30;99.90;;;;;;5055361;28;20025;-76
2022/12/09 04:00:49;;;;;;;18.42;6.18;;;1.30;99.90;;;;;;5056756;28;20025;-76
2022/12/09 04:03:16;;;;;;;14.63;5.70;;;1.30;99.90;;;;;;5055264;28;20029;-77
2022/12/09 04:05:43;;;;;;;15.48;5.60;;;1.30;99.90;;;;;;5056485;28;20025;-76
2022/12/09 04:08:10;;;;;;;17.52;6.40;;;1.30;99.90;;;;;;5056882;28;20029;-76
2022/12/09 04:10:35;;;;;;;16.13;6.03;;;1.30;99.90;;;;;;5054990;28;20047;-76
2022/12/09 04:13:01;;;;;;;19.33;5.80;;;1.30;99.90;;;;;;5057047;28;20025;-76
2022/12/09 04:15:26;;;;;;;17.20;6.90;;;1.20;99.90;;;;;;5056403;28;20064;-77
2022/12/09 04:17:52;;;;;;;17.63;6.88;;;1.20;99.90;;;;;;5056130;28;20029;-77
2022/12/09 04:20:20;;;;;;;18.58;6.05;;;1.10;99.90;;;;;;5054733;28;20032;-77
2022/12/09 04:22:46;;;;;;;17.63;5.20;;;1.00;99.90;;;;;;5176940;22;20049;-75
2022/12/09 04:25:12;;;;;;;15.70;5.63;;;0.90;99.90;;;;;;5074750;28;20039;-76
2022/12/09 04:27:37;;;;;;;15.52;6.22;;;0.90;99.90;;;;;;5074865;28;20138;-76
2022/12/09 04:30:03;;;;;;;18.48;6.53;;;0.80;99.90;;;;;;5074708;28;20467;-76
2022/12/09 04:32:30;;;;;;;19.77;6.32;;;0.60;99.90;;;;;;5075952;28;20021;-76
2022/12/09 04:34:56;;;;;;;16.02;6.07;;;0.60;99.90;;;;;;5074604;28;20024;-75
2022/12/09 04:37:21;;;;;;;15.07;5.47;;;0.50;99.90;;;;;;5075829;28;20397;-75
2022/12/09 04:39:47;;;;;;;14.07;5.18;;;0.40;99.90;;;;;;5076711;28;20336;-75
2022/12/09 04:42:12;;;;;;;17.67;6.13;;;0.30;99.90;;;;;;5074545;28;20055;-75
2022/12/09 04:44:38;;;;;;;14.57;5.78;;;0.20;99.90;;;;;;5075782;28;20487;-75
2022/12/09 04:47:03;;;;;;;19.30;5.63;;;0.10;99.90;;;;;;5075460;28;20028;-75
2022/12/09 04:49:30;;;;;;;14.05;5.00;;;0.00;99.90;;;;;;5076266;28;20024;-75
2022/12/09 04:51:56;;;;;;;15.05;5.45;;;0.00;99.90;;;;;;5075306;28;20025;-75
2022/12/09 04:54:21;;;;;;;14.93;5.03;;;-0.10;99.90;;;;;;5075869;28;20404;-75
2022/12/09 04:56:47;;;;;;;16.95;6.20;;;-0.10;99.90;;;;;;5076078;28;20021;-75
2022/12/09 04:59:13;;;;;;;16.48;5.55;;;-0.20;99.90;;;;;;5076510;28;20070;-75
2022/12/09 05:01:39;;;;;;;17.20;5.78;;;-0.20;99.90;;;;;;5057536;28;20479;-76
2022/12/09 05:04:04;;;;;;;15.65;5.47;;;-0.20;99.90;;;;;;5074188;28;20025;-75
2022/12/09 05:06:30;;;;;;;16.42;5.63;;;-0.20;99.90;;;;;;5074098;28;20479;-75
2022/12/09 05:08:55;;;;;;;19.15;6.72;;;-0.20;99.90;;;;;;5074155;28;20029;-75
2022/12/09 05:11:22;;;;;;;17.30;5.60;;;-0.30;99.90;;;;;;5074248;28;20056;-75
2022/12/09 05:13:48;;;;;;;18.52;6.45;;;-0.30;99.90;;;;;;5074247;28;20027;-76
2022/12/09 05:16:16;;;;;;;17.38;5.90;;;-0.30;99.90;;;;;;5074904;28;20021;-76
2022/12/09 05:18:43;;;;;;;17.38;6.20;;;-0.40;99.90;;;;;;5074069;28;20517;-75
2022/12/09 05:21:11;;;;;;;14.80;5.38;;;-0.40;99.90;;;;;;5074082;28;20471;-76
2022/12/09 05:23:37;;;;;;;17.05;5.20;;;-0.40;99.90;;;;;;5074188;28;20039;-76
2022/12/09 05:26:05;;;;;;;14.57;5.50;;;-0.40;99.90;;;;;;5075513;28;20104;-76
2022/12/09 05:28:32;;;;;;;19.10;5.38;;;-0.40;99.90;;;;;;5075305;28;20115;-76
2022/12/09 05:31:10;;;;;;;18.60;6.13;;;-0.50;99.90;;;;;;5074273;28;20483;-76
2022/12/09 05:33:36;;;;;;;13.75;4.40;;;-0.50;99.90;;;;;;5075157;28;20029;-76
2022/12/09 05:36:02;;;;;;;16.02;4.97;;;-0.60;99.90;;;;;;5075258;28;20027;-76
2022/12/09 05:38:31;;;;;;;15.15;5.07;;;-0.70;99.90;;;;;;5073812;28;20028;-76
2022/12/09 05:40:58;;;;;;;18.02;6.18;;;-0.70;99.90;;;;;;5074082;28;20074;-76
2022/12/09 05:43:26;;;;;;;17.60;5.03;;;-0.70;99.90;;;;;;5074969;28;20482;-76
2022/12/09 05:45:52;;;;;;;12.88;4.43;;;-0.70;99.90;;;;;;5073794;28;20548;-76
2022/12/09 05:48:17;;;;;;;21.05;6.20;;;-0.70;99.90;;;;;;5073730;28;20020;-76
2022/12/09 05:50:43;;;;;;;20.77;6.97;;;-0.60;99.90;;;;;;5075715;28;20033;-76
2022/12/09 05:53:09;;;;;;;16.75;6.68;;;-0.60;99.90;;;;;;5073324;28;20029;-76
2022/12/09 05:55:38;;;;;;;18.67;6.60;;;-0.50;99.90;;;;;;5073433;28;20035;-76
2022/12/09 05:58:03;;;;;;;17.85;6.43;;;-0.30;99.90;;;;;;5074409;28;20021;-76
2022/12/09 06:00:30;;;;;;;20.33;6.32;;;-0.30;99.90;;;;;;5074600;28;20475;-76
2022/12/09 06:02:55;;;;;;;21.02;7.28;;;-0.30;99.90;;;;;;5075252;28;20082;-76
2022/12/09 06:05:21;;;;;;;21.35;7.00;;;-0.10;99.90;;;;;;5073391;28;20058;-76
2022/12/09 06:07:46;;;;;;;25.17;7.60;;;-0.10;99.90;;;;;;5074530;28;20078;-76
2022/12/09 06:10:12;;;;;;;17.67;6.22;;;-0.10;99.90;;;;;;5074435;28;20032;-76
2022/12/09 06:12:37;;;;;;;19.88;6.75;;;0.00;99.90;;;;;;5073294;28;20047;-75
2022/12/09 06:15:03;;;;;;;22.33;7.90;;;0.00;99.90;;;;;;5074739;28;20387;-75
2022/12/09 06:17:29;;;;;;;18.98;7.13;;;0.00;99.90;;;;;;5073359;28;20457;-75
2022/12/09 06:19:54;;;;;;;19.67;7.10;;;0.10;99.90;;;;;;5073620;28;20103;-75
2022/12/09 06:22:20;;;;;;;18.75;7.45;;;0.00;99.90;;;;;;5074413;28;20037;-75
2022/12/09 06:24:45;;;;;;;15.57;6.63;;;0.10;99.90;;;;;;5074566;28;20099;-75
2022/12/09 06:27:11;;;;;;;21.00;7.43;;;0.10;99.90;;;;;;5074635;28;20025;-75
2022/12/09 06:29:36;;;;;;;20.08;7.75;;;0.20;99.90;;;;;;5074126;28;20077;-75
2022/12/09 06:32:03;;;;;;;26.85;9.85;;;0.30;99.90;;;;;;5073041;28;20130;-75
2022/12/09 06:34:29;;;;;;;25.77;8.85;;;0.30;99.90;;;;;;5074705;28;20104;-75
2022/12/09 06:36:54;;;;;;;24.75;8.85;;;0.30;99.90;;;;;;5073184;28;20079;-76
2022/12/09 06:39:22;;;;;;;21.15;8.02;;;0.40;99.90;;;;;;5074180;28;20060;-76
2022/12/09 06:41:48;;;;;;;28.20;8.45;;;0.40;99.90;;;;;;5074522;28;20017;-76
2022/12/09 06:44:13;;;;;;;26.95;9.45;;;0.40;99.90;;;;;;5073508;28;20130;-76
2022/12/09 06:46:39;;;;;;;26.63;9.82;;;;;;;;;;5072981;28;20052;-75
2022/12/09 06:49:08;;;;;;;30.60;9.23;;;0.30;99.90;;;;;;5073979;28;20025;-75
2022/12/09 06:51:34;;;;;;;29.25;9.52;;;0.20;99.90;;;;;;5073055;28;20034;-76
2022/12/09 06:54:00;;;;;;;26.88;10.02;;;0.20;99.90;;;;;;5074153;28;20029;-76
2022/12/09 06:56:26;;;;;;;22.90;9.10;;;0.00;99.90;;;;;;5074595;28;20505;-75
2022/12/09 06:58:52;;;;;;;23.27;8.15;;;-0.10;99.90;;;;;;5074105;28;20483;-75
2022/12/09 07:01:20;;;;;;;23.02;7.90;;;-0.10;99.90;;;;;;5074395;28;20023;-75
2022/12/09 07:03:50;;;;;;;25.35;8.77;;;-0.30;99.90;;;;;;5075548;28;20020;-75
2022/12/09 07:06:34;;;;;;;27.65;9.82;;;-0.40;99.90;;;;;;5073078;28;20020;-75
2022/12/09 07:09:06;;;;;;;24.83;9.32;;;-0.40;99.90;;;;;;5074843;28;20387;-76
2022/12/09 07:11:31;;;;;;;31.55;9.95;;;-0.40;99.90;;;;;;5074322;28;20036;-76
2022/12/09 07:13:57;;;;;;;26.77;9.55;;;;;;;;;;5074014;28;20052;-76
2022/12/09 07:16:23;;;;;;;25.63;9.82;;;-0.40;99.90;;;;;;5077354;28;20032;-76
2022/12/09 07:18:49;;;;;;;29.45;9.60;;;-0.40;99.90;;;;;;5077639;28;20074;-77
2022/12/09 07:21:17;;;;;;;33.30;10.38;;;-0.30;99.90;;;;;;5078590;28;20036;-76
2022/12/09 07:23:43;;;;;;;30.13;10.30;;;-0.20;99.90;;;;;;5078010;28;20517;-75
2022/12/09 07:26:09;;;;;;;36.22;11.55;;;-0.10;99.90;;;;;;5076551;28;20029;-76
2022/12/09 07:28:38;;;;;;;35.78;12.75;;;0.00;99.90;;;;;;5077833;28;20123;-76
2022/12/09 07:31:03;;;;;;;34.55;12.73;;;0.10;99.90;;;;;;5076087;28;20028;-76
2022/12/09 07:33:30;;;;;;;32.95;12.60;;;0.20;99.90;;;;;;5076554;28;20020;-76
2022/12/09 07:35:57;;;;;;;36.20;14.20;;;0.30;99.90;;;;;;5077772;28;20021;-76
2022/12/09 07:38:24;;;;;;;38.40;14.10;;;0.40;99.90;;;;;;5078059;28;20025;-76
2022/12/09 07:40:50;;;;;;;37.20;13.63;;;0.40;99.90;;;;;;5078651;28;20036;-76
2022/12/09 07:43:16;;;;;;;39.97;14.40;;;0.50;99.90;;;;;;5077910;28;20425;-76
2022/12/09 07:45:43;;;;;;;40.30;14.43;;;0.50;99.90;;;;;;5076641;28;20077;-77
2022/12/09 07:48:09;;;;;;;46.13;15.27;;;0.60;99.90;;;;;;5078060;28;20029;-76
2022/12/09 07:50:35;;;;;;;40.88;13.93;;;0.60;99.90;;;;;;5076109;28;20051;-77
2022/12/09 07:53:00;;;;;;;40.72;13.30;;;0.60;99.90;;;;;;5076208;28;20379;-77
2022/12/09 07:55:26;;;;;;;40.80;14.30;;;0.60;99.90;;;;;;5075221;28;20021;-78
2022/12/09 07:57:52;;;;;;;39.25;13.32;;;;;;;;;;5077264;28;20088;-76
2022/12/09 08:00:18;;;;;;;39.55;14.32;;;0.60;99.90;;;;;;5079463;28;20103;-75
2022/12/09 08:02:44;;;;;;;39.35;13.85;;;0.50;99.90;;;;;;5079171;28;20529;-75
2022/12/09 08:05:10;;;;;;;41.65;14.00;;;0.50;99.90;;;;;;5080038;28;20029;-75
2022/12/09 08:07:35;;;;;;;37.65;13.55;;;0.50;99.90;;;;;;5080090;28;20035;-75
2022/12/09 08:10:01;;;;;;;41.70;14.50;;;;;;;;;;5078779;28;20040;-75
2022/12/09 08:12:27;;;;;;;40.90;12.93;;;0.50;99.90;;;;;;5077658;28;20378;-76
2022/12/09 08:14:53;;;;;;;41.58;13.65;;;0.50;99.90;;;;;;5076537;28;20020;-76
2022/12/09 08:17:18;;;;;;;43.88;13.90;;;0.60;99.90;;;;;;5077535;28;20104;-76
2022/12/09 08:19:44;;;;;;;41.40;14.38;;;0.60;99.90;;;;;;5077336;28;20027;-75
2022/12/09 08:22:10;;;;;;;42.70;13.65;;;0.60;99.90;;;;;;5077402;28;20398;-75
2022/12/09 08:24:35;;;;;;;38.58;13.60;;;0.60;99.90;;;;;;5076858;28;20093;-75
2022/12/09 08:27:01;;;;;;;40.50;13.45;;;0.60;99.90;;;;;;5076513;28;20032;-76
2022/12/09 08:29:27;;;;;;;41.75;13.75;;;0.60;99.90;;;;;;5078150;28;20055;-75
2022/12/09 08:31:52;;;;;;;36.25;12.65;;;0.60;99.90;;;;;;5076976;28;20025;-75
2022/12/09 08:34:18;;;;;;;43.80;15.40;;;0.60;99.90;;;;;;5076370;28;20020;-75
2022/12/09 08:36:44;;;;;;;37.30;13.30;;;0.50;99.90;;;;;;5077123;28;20075;-75
2022/12/09 08:39:11;;;;;;;40.97;12.48;;;0.50;99.90;;;;;;5078833;28;20052;-75
2022/12/09 08:41:37;;;;;;;47.25;14.40;;;0.40;99.90;;;;;;5078204;28;20020;-76
2022/12/09 08:44:17;;;;;;;36.20;12.23;;;0.50;99.90;;;;;;5077201;28;20078;-75
2022/12/09 08:46:45;;;;;;;35.50;12.20;;;0.50;99.90;;;;;;5076250;28;20532;-77
2022/12/09 08:49:12;;;;;;;35.75;12.07;;;0.50;99.90;;;;;;5078747;28;20078;-75
2022/12/09 08:51:38;;;;;;;34.55;12.23;;;0.60;99.90;;;;;;5077039;28;20032;-75
2022/12/09 08:54:04;;;;;;;41.42;12.73;;;0.70;99.90;;;;;;5076554;28;20024;-75
2022/12/09 08:56:33;;;;;;;39.03;12.55;;;0.70;99.90;;;;;;5075427;28;20107;-76
2022/12/09 08:58:59;;;;;;;36.00;12.38;;;0.70;99.90;;;;;;5076307;28;20043;-77
2022/12/09 09:01:31;;;;;;;38.25;13.85;;;0.80;99.90;;;;;;5076166;28;20068;-77
2022/12/09 09:04:06;;;;;;;38.30;12.10;;;0.90;99.90;;;;;;5076614;28;20020;-77
2022/12/09 09:06:31;;;;;;;36.85;13.30;;;0.90;99.90;;;;;;5077251;28;20024;-77
2022/12/09 09:08:57;;;;;;;40.40;12.75;;;0.90;99.90;;;;;;5076661;28;20467;-77
2022/12/09 09:11:24;;;;;;;38.92;13.23;;;0.90;99.90;;;;;;5076193;28;20398;-76
2022/12/09 09:13:50;;;;;;;52.83;13.68;;;1.00;99.90;;;;;;5076028;28;20433;-76
2022/12/09 09:16:19;;;;;;;35.15;11.75;;;1.10;99.90;;;;;;5075776;28;20021;-76
2022/12/09 09:18:45;;;;;;;;;;;1.10;99.90;;;;;;5075887;28;20056;-76
2022/12/09 09:21:13;;;;;;;36.17;12.10;;;1.20;99.90;;;;;;5075709;28;19905;-76
2022/12/09 09:23:39;;;;;;;33.10;11.57;;;1.20;99.90;;;;;;5076961;28;20071;-76
2022/12/09 09:26:12;;;;;;;33.90;11.75;;;1.30;99.90;;;;;;5074920;28;20070;-76
2022/12/09 09:28:38;;;;;;;38.55;12.32;;;1.30;99.90;;;;;;5075642;28;20376;-77
2022/12/09 09:31:08;;;;;;;35.30;12.35;;;1.40;99.90;;;;;;5076436;28;20028;-76
2022/12/09 09:33:35;;;;;;;37.03;13.00;;;1.40;99.90;;;;;;5075801;28;20107;-76
2022/12/09 09:36:06;;;;;;;40.90;13.63;;;1.50;99.90;;;;;;5074270;28;20112;-76
2022/12/09 09:38:35;;;;;;;37.70;13.95;;;1.60;99.90;;;;;;5076228;28;20027;-75
2022/12/09 09:41:21;;;;;;;36.47;12.77;;;1.60;99.90;;;;;;5076049;28;20016;-76
2022/12/09 09:43:47;;;;;;;37.10;12.43;;;1.70;99.90;;;;;;5064725;28;20063;-76
2022/12/09 09:46:38;;;;;;;31.83;11.15;;;1.80;99.90;;;;;;5075247;28;20373;-76
2022/12/09 09:49:06;;;;;;;35.88;12.07;;;1.80;99.90;;;;;;5073954;28;20024;-76
2022/12/09 09:51:34;;;;;;;38.97;12.18;;;1.90;99.90;;;;;;5074838;28;20483;-75
2022/12/09 09:54:00;;;;;;;35.47;12.70;;;;;;;;;;5076059;28;20025;-76
2022/12/09 09:56:44;;;;;;;36.95;13.00;;;2.00;99.90;;;;;;5074809;28;20025;-75
2022/12/09 09:59:25;;;;;;;34.47;12.05;;;2.00;99.90;;;;;;5075571;28;20082;-76
2022/12/09 10:02:12;;;;;;;38.08;12.63;;;2.10;99.90;;;;;;5074232;28;20021;-77
2022/12/09 10:05:06;;;;;;;39.70;11.55;;;2.10;99.90;;;;;;5074328;28;20483;-76
2022/12/09 10:07:43;;;;;;;34.70;12.18;;;2.00;99.90;;;;;;5038479;28;20065;-77
2022/12/09 10:10:09;;;;;;;35.35;12.65;;;;;;;;;;5075983;28;20395;-77
2022/12/09 10:12:57;;;;;;;36.63;13.23;;;2.10;99.90;;;;;;5074373;28;20123;-76
2022/12/09 10:15:28;;;;;;;37.42;12.85;;;2.10;99.90;;;;;;5074669;28;20143;-77
2022/12/09 10:18:17;;;;;;;34.78;13.10;;;2.10;99.90;;;;;;5075517;28;20479;-77
2022/12/09 10:20:49;;;;;;;40.25;12.15;;;2.10;99.90;;;;;;5074654;28;20025;-77
2022/12/09 10:23:15;;;;;;;32.33;11.65;;;1.90;99.90;;;;;;5074741;28;20090;-77
2022/12/09 10:25:52;;;;;;;36.60;13.50;;;2.00;99.90;;;;;;5074533;28;20021;-77
2022/12/09 10:28:22;;;;;;;36.60;12.15;;;2.00;99.90;;;;;;5073894;28;20078;-77
2022/12/09 10:30:52;;;;;;;32.85;12.82;;;2.00;99.90;;;;;;5074603;28;20027;-77
2022/12/09 10:33:27;;;;;;;34.08;13.13;;;2.00;99.90;;;;;;5074249;28;20028;-77
2022/12/09 10:35:53;;;;;;;36.70;13.23;;;2.10;99.90;;;;;;5074300;28;20020;-77
2022/12/09 10:38:20;;;;;;;39.35;12.80;;;2.10;99.90;;;;;;5074011;28;20024;-76
2022/12/09 10:40:46;;;;;;;32.30;12.30;;;2.10;99.90;;;;;;5074380;28;20037;-75
2022/12/09 10:43:38;;;;;;;36.60;12.60;;;2.10;99.90;;;;;;5074441;28;20059;-76
2022/12/09 10:46:14;;;;;;;36.90;12.27;;;2.20;99.90;;;;;;5073249;28;20070;-76
2022/12/09 10:48:45;;;;;;;39.33;11.48;;;2.20;99.90;;;;;;5073110;28;20433;-77
2022/12/09 10:51:15;;;;;;;34.97;11.90;;;2.30;99.90;;;;;;5072937;28;20029;-77
2022/12/09 10:53:47;;;;;;;32.97;11.68;;;2.20;99.90;;;;;;5074359;28;20028;-77
2022/12/09 10:56:28;;;;;;;40.80;14.73;;;2.40;99.90;;;;;;5074076;28;20054;-76
2022/12/09 10:59:15;;;;;;;36.25;13.40;;;2.50;99.90;;;;;;5074242;28;20043;-76
2022/12/09 11:01:54;;;;;;;38.60;12.33;;;4.60;99.90;;;;;;5072744;28;20063;-76
2022/12/09 11:04:24;;;;;;;29.02;10.45;;;2.60;99.90;;;;;;5074379;28;20050;-77
2022/12/09 11:07:01;;;;;;;34.50;11.55;;;2.60;99.90;;;;;;5075033;28;20032;-76
2022/12/09 11:09:42;;;;;;;32.78;11.52;;;3.40;99.90;;;;;;5072873;28;20024;-76
2022/12/09 11:12:38;;;;;;;30.90;11.60;;;2.60;99.90;;;;;;5072576;28;20399;-75
2022/12/09 11:15:34;;;;;;;34.17;11.73;;;2.60;99.90;;;;;;5072592;28;20036;-75
2022/12/09 11:18:03;;;;;;;30.23;10.43;;;2.60;99.90;;;;;;5073825;28;20036;-75
2022/12/09 11:20:31;;;;;;;29.45;11.50;;;2.60;99.90;;;;;;5073217;28;20020;-74
2022/12/09 11:23:20;;;;;;;28.63;10.80;;;2.50;99.90;;;;;;5072448;28;20028;-76
2022/12/09 11:25:56;;;;;;;35.40;11.93;;;2.50;99.90;;;;;;5073721;28;20057;-75
2022/12/09 11:28:36;;;;;;;30.67;11.27;;;2.50;99.90;;;;;;5072844;28;20055;-74
2022/12/09 11:31:15;;;;;;;27.75;10.52;;;2.50;99.90;;;;;;5074280;28;20129;-76
2022/12/09 11:34:02;;;;;;;33.80;12.00;;;2.60;99.90;;;;;;5074738;28;20036;-74
2022/12/09 11:36:33;;;;;;;31.60;10.73;;;2.60;99.90;;;;;;5062864;28;20488;-77
2022/12/09 11:39:34;;;;;;;32.50;11.02;;;2.70;99.90;;;;;;5072410;28;20051;-76
2022/12/09 11:42:12;;;;;;;27.98;10.65;;;2.60;99.90;;;;;;5075108;28;20343;-75
2022/12/09 11:44:45;;;;;;;27.00;9.13;;;2.70;99.90;;;;;;5074240;28;20025;-75
2022/12/09 11:47:26;;;;;;;29.75;11.13;;;2.70;99.90;;;;;;5073875;28;20028;-76
2022/12/09 11:50:11;;;;;;;27.67;10.75;;;2.70;99.90;;;;;;5074849;28;20025;-74
2022/12/09 11:52:36;;;;;;;33.97;11.52;;;2.70;99.90;;;;;;5072729;28;20486;-74
2022/12/09 11:55:11;;;;;;;29.10;10.45;;;2.70;99.90;;;;;;5073427;28;20016;-74
2022/12/09 11:57:52;;;;;;;29.63;11.05;;;2.70;99.90;;;;;;5072044;28;20059;-74
2022/12/09 12:00:21;;;;;;;33.75;9.95;;;2.70;99.90;;;;;;5073953;28;20020;-74
2022/12/09 12:03:15;;;;;;;29.42;10.13;;;2.90;99.90;;;;;;5075929;28;20020;-74
2022/12/09 12:05:52;;;;;;;27.38;9.98;;;2.90;99.90;;;;;;5077186;28;20025;-74
2022/12/09 12:08:38;;;;;;;30.77;10.48;;;5.70;99.90;;;;;;5077101;28;20498;-75
2022/12/09 12:11:12;;;;;;;26.25;9.70;;;4.40;99.90;;;;;;5077297;28;20070;-74
2022/12/09 12:13:52;;;;;;;26.77;10.27;;;3.00;99.90;;;;;;5076631;28;20032;-74
2022/12/09 12:16:28;;;;;;;25.83;9.25;;;2.90;99.90;;;;;;5074929;28;20013;-75
2022/12/09 12:19:26;;;;;;;28.65;10.23;;;2.90;99.90;;;;;;5075572;28;20055;-75
2022/12/09 12:22:32;;;;;;;25.57;8.67;;;2.90;99.90;;;;;;5075947;28;20121;-75
2022/12/09 12:25:02;;;;;;;25.23;9.40;;;3.00;99.90;;;;;;5077091;28;20629;-74
2022/12/09 12:27:58;;;;;;;29.90;9.95;;;3.00;99.90;;;;;;5078166;28;20024;-75
2022/12/09 12:30:39;;;;;;;29.40;9.98;;;3.00;99.90;;;;;;5076993;28;20031;-75
2022/12/09 12:33:37;;;;;;;22.75;9.20;;;3.00;99.90;;;;;;5077257;28;20042;-75
2022/12/09 12:36:28;;;;;;;23.80;8.93;;;3.00;99.90;;;;;;5077446;28;20024;-74
2022/12/09 12:39:09;;;;;;;26.38;8.93;;;3.10;99.90;;;;;;5076268;28;20546;-73
2022/12/09 12:41:38;;;;;;;25.58;9.95;;;3.10;99.90;;;;;;5077548;28;20044;-74
2022/12/09 12:47:46;;;;;;;26.67;9.80;;;2.80;99.90;;;;;;5056979;28;20039;-75
2022/12/09 12:50:30;;;;;;;24.48;9.10;;;2.80;99.90;;;;;;5074240;28;20037;-75
2022/12/09 12:53:10;;;;;;;31.25;10.82;;;2.80;99.90;;;;;;5075173;28;20031;-75
2022/12/09 12:55:52;;;;;;;27.58;10.90;;;2.80;99.90;;;;;;5075799;28;20032;-75
2022/12/09 12:58:59;;;;;;;28.83;11.35;;;2.80;99.90;;;;;;5074872;28;20016;-75
2022/12/09 13:01:52;;;;;;;31.40;11.90;;;2.70;99.90;;;;;;5036847;28;20133;-76
2022/12/09 13:04:48;;;;;;;27.63;9.52;;;2.70;99.90;;;;;;5077240;28;20025;-76
2022/12/09 13:07:27;;;;;;;27.88;10.32;;;2.70;99.90;;;;;;5062521;28;20036;-75